Tradition — WDC5696 — position and weather

sailwx.info

Track history (hours):
 
Tides and Currents Weather Stations Pressure Air Temp Water Temp Dewpoint Dewpoint Depression Visibility Wind Speed Wind Dir Waves Ship Positions

Tradition

Owner: Lovrovich, Tom, gig harbor, WA. More information available from US FCC via Universal Licensing System and Coast Guard Vessel Documentation Center.

Last reported at 2017-Oct-19 01:32 UTC. Time now 2017-Oct-20 03:27 UTC.
Position N 47°20' W 122°35'.

Length 19 m.

Type: Fishing. MMSI: 367045150.

Date/timePositionNaut miles runAvg speedWind from/ knotsBaromVisibWave heightAir tempDewpointWater temp
2017-Oct-19 01:32N 47°20' W 122°35'1 0.8
2017-Oct-19 00:22N 47°20' W 122°34'3 7.4
2017-Oct-19 00:00N 47°22' W 122°33'2 1.4
2017-Oct-18 22:54N 47°24' W 122°33'0 0.8
2017-Oct-18 22:30N 47°24' W 122°33'1 1.4
2017-Oct-18 21:52N 47°23' W 122°33'0 0.5
2017-Oct-18 21:27N 47°23' W 122°33'0 0.6
2017-Oct-18 20:57N 47°23' W 122°33'0 0.6
2017-Oct-18 20:30N 47°23' W 122°33'2 4.9
2017-Oct-18 20:00N 47°21' W 122°33'1 1.8
2017-Oct-18 19:29N 47°20' W 122°34'0 0.2
2017-Oct-18 18:57N 47°20' W 122°34'0 0.4
2017-Oct-18 18:27N 47°20' W 122°34'0 0.2
2017-Oct-18 18:00N 47°20' W 122°34'1 1.3
2017-Oct-18 17:29N 47°20' W 122°34'3 4.7
2017-Oct-18 16:53N 47°23' W 122°33'0 0.5
2017-Oct-18 16:22N 47°24' W 122°33'0 0.4
2017-Oct-18 15:54N 47°24' W 122°33'0 0.5
2017-Oct-18 15:30N 47°24' W 122°33'0 0.3
2017-Oct-18 15:00N 47°24' W 122°33'0 0.2
2017-Oct-18 13:24N 47°23' W 122°33'0 0.0
2017-Oct-18 12:51N 47°23' W 122°33'0 0.1
2017-Oct-18 12:12N 47°23' W 122°33'0 0.0
2017-Oct-18 12:00N 47°23' W 122°33'0 0.0
2017-Oct-18 11:27N 47°23' W 122°33'0 0.0
2017-Oct-18 11:00N 47°23' W 122°33'0 0.0
2017-Oct-18 10:30N 47°23' W 122°33'0 0.0
2017-Oct-18 09:45N 47°23' W 122°33'0 0.2
2017-Oct-18 09:30N 47°23' W 122°33'0 0.1
2017-Oct-18 08:54N 47°23' W 122°33'0 0.0
2017-Oct-18 08:30N 47°23' W 122°33'0 0.1
2017-Oct-18 08:00N 47°23' W 122°33'0 0.0
2017-Oct-18 07:30N 47°23' W 122°33'0 0.1
2017-Oct-18 07:00N 47°23' W 122°33'0 0.1
2017-Oct-18 06:27N 47°23' W 122°33'0 0.1
2017-Oct-18 06:00N 47°23' W 122°33'0 0.0
2017-Oct-18 05:21N 47°23' W 122°33'0 0.1
2017-Oct-18 04:57N 47°23' W 122°33'0 0.1
2017-Oct-18 04:30N 47°23' W 122°33'0 0.0
2017-Oct-18 03:54N 47°23' W 122°33'0 0.1
2017-Oct-18 03:24N 47°23' W 122°33'0 0.0
2017-Oct-18 02:36N 47°23' W 122°33'0 0.0
2017-Oct-18 01:42N 47°23' W 122°33'0 0.0
2017-Oct-18 01:12N 47°23' W 122°33'0 0.0
2017-Oct-18 00:54N 47°23' W 122°33'0 0.0
2017-Oct-18 00:27N 47°23' W 122°33'0 0.0
2017-Oct-18 00:01N 47°23' W 122°33'0 0.0
2017-Oct-17 23:27N 47°23' W 122°33'0 0.0
2017-Oct-17 22:58N 47°23' W 122°33'0 0.0
2017-Oct-17 22:28N 47°23' W 122°33'0 0.0
2017-Oct-17 22:01N 47°23' W 122°33'0 0.0
2017-Oct-17 21:24N 47°23' W 122°33'0 0.0
2017-Oct-17 20:54N 47°23' W 122°33'0 0.1
2017-Oct-17 20:27N 47°23' W 122°33'0 0.0
2017-Oct-17 20:00N 47°23' W 122°33'0 0.0
2017-Oct-17 19:22N 47°23' W 122°33'0 0.0
2017-Oct-17 18:04N 47°23' W 122°33'0 0.0
2017-Oct-17 17:46N 47°23' W 122°33'0 0.0
2017-Oct-17 17:31N 47°23' W 122°33'0 0.0
2017-Oct-17 16:55N 47°23' W 122°33'0 0.0
2017-Oct-17 16:28N 47°23' W 122°33'0 0.0
2017-Oct-17 15:58N 47°23' W 122°33'0 0.0
2017-Oct-17 15:19N 47°23' W 122°33'0 0.0
2017-Oct-17 14:58N 47°23' W 122°33'0 0.0
2017-Oct-17 13:49N 47°23' W 122°33'0 0.0
2017-Oct-17 13:28N 47°23' W 122°33'0 0.0
2017-Oct-17 12:52N 47°23' W 122°33'0 0.0
2017-Oct-17 12:25N 47°23' W 122°33'0 0.0
2017-Oct-17 11:55N 47°23' W 122°33'0 0.0
2017-Oct-17 11:25N 47°23' W 122°33'0 0.0
2017-Oct-17 10:55N 47°23' W 122°33'0 0.0
2017-Oct-17 10:28N 47°23' W 122°33'0 0.1
2017-Oct-17 09:58N 47°23' W 122°33'0 0.1
2017-Oct-17 09:28N 47°23' W 122°33'0 0.0
2017-Oct-17 08:55N 47°23' W 122°33'0 0.1
2017-Oct-17 08:25N 47°23' W 122°33'0 0.0
2017-Oct-17 07:58N 47°23' W 122°33'0 0.0
2017-Oct-17 07:28N 47°23' W 122°33'0 0.0
2017-Oct-17 06:58N 47°23' W 122°33'0 0.0
2017-Oct-17 06:28N 47°23' W 122°33'0 0.0
2017-Oct-17 05:52N 47°23' W 122°33'0 0.0
2017-Oct-17 05:28N 47°23' W 122°33'0 0.0
2017-Oct-17 04:58N 47°23' W 122°33'0 0.1
2017-Oct-17 04:22N 47°23' W 122°33'0 0.1
2017-Oct-17 03:55N 47°23' W 122°33'0 0.1
2017-Oct-17 03:13N 47°23' W 122°33'0 0.0
2017-Oct-17 02:49N 47°23' W 122°33'0 0.0
2017-Oct-17 01:37N 47°23' W 122°33'0 0.0
2017-Oct-17 01:28N 47°23' W 122°33'0 0.0
2017-Oct-17 00:58N 47°23' W 122°33'0 0.0
2017-Oct-17 00:07N 47°23' W 122°33'0 0.0
2017-Oct-16 23:49N 47°23' W 122°33'0 0.0
2017-Oct-16 23:28N 47°23' W 122°33'0 0.0
2017-Oct-16 22:57N 47°23' W 122°33'2 5.0
2017-Oct-16 22:30N 47°21' W 122°33'2 0.3
2017-Oct-16 14:50N 47°20' W 122°35'0 0.0
2017-Oct-15 17:20N 47°20' W 122°35'0 0.0
2017-Oct-15 16:02N 47°20' W 122°35'0 0.0
2017-Oct-15 15:32N 47°20' W 122°35'0 0.0
2017-Oct-15 15:20N 47°20' W 122°35'0 0.0
2017-Oct-15 13:35N 47°20' W 122°35'0 0.1
2017-Oct-15 13:29N 47°20' W 122°35'0 0.0
2017-Oct-15 08:14N 47°20' W 122°35'0 0.0
2017-Oct-15 05:53N 47°20' W 122°35'0 0.0
2017-Oct-15 02:32N 47°20' W 122°35'0 0.0
2017-Oct-15 01:14N 47°20' W 122°35'0 0.0
2017-Oct-14 15:47N 47°20' W 122°35'0 0.0
2017-Oct-14 15:26N 47°20' W 122°35'0 0.0
2017-Oct-14 14:59N 47°20' W 122°35'0 0.0
2017-Oct-14 08:32N 47°20' W 122°35'0 0.0
2017-Oct-14 08:23N 47°20' W 122°35'0 0.0
2017-Oct-13 22:08N 47°20' W 122°35'0 0.0
2017-Oct-13 15:11N 47°20' W 122°35'0 0.0
2017-Oct-12 04:40N 47°20' W 122°35'0 0.0
2017-Oct-12 04:19N 47°20' W 122°35'0 0.0
2017-Oct-10 13:49N 47°20' W 122°35'0 0.0
2017-Oct-10 13:13N 47°20' W 122°35'0 0.0
2017-Oct-10 12:49N 47°20' W 122°35'0 0.0
2017-Oct-10 12:25N 47°20' W 122°35'0 0.0
2017-Oct-10 11:55N 47°20' W 122°35'0 0.0
2017-Oct-10 11:19N 47°20' W 122°35'0 0.0
2017-Oct-10 10:37N 47°20' W 122°35'0 0.0
2017-Oct-10 10:25N 47°20' W 122°35'0 0.0
2017-Oct-10 09:58N 47°20' W 122°35'0 0.0
2017-Oct-10 09:22N 47°20' W 122°35'0 0.0
2017-Oct-10 08:10N 47°20' W 122°35'0 0.0
2017-Oct-10 07:52N 47°20' W 122°35'0 0.0
2017-Oct-10 06:43N 47°20' W 122°35'0 0.0
2017-Oct-10 06:28N 47°20' W 122°35'0 0.0
2017-Oct-10 04:55N 47°20' W 122°35'0 0.0
2017-Oct-10 00:54N 47°20' W 122°35'2 4.1
2017-Oct-10 00:30N 47°21' W 122°33'4 8.7
2017-Oct-10 00:00N 47°25' W 122°32'5 9.0
2017-Oct-09 23:30N 47°29' W 122°30'5 9.0
2017-Oct-09 23:00N 47°34' W 122°28'5 9.1
2017-Oct-09 22:30N 47°39' W 122°29'4 8.8
2017-Oct-09 21:59N 47°43' W 122°28'4 9.0
2017-Oct-09 21:30N 47°47' W 122°28'4 9.1
2017-Oct-09 21:00N 47°52' W 122°30'  
Track history (hours):
 
Tides and Currents Weather Stations Pressure Air Temp Water Temp Dewpoint Dewpoint Depression Visibility Wind Speed Wind Dir Waves Ship Positions

Tradition

Owner: Lovrovich, Tom, gig harbor, WA. More information available from US FCC via Universal Licensing System and Coast Guard Vessel Documentation Center.

Last reported at 2017-Oct-19 01:32 UTC. Time now 2017-Oct-20 03:27 UTC.
Position N 47°20' W 122°35'.

Length 19 m.

Type: Fishing. MMSI: 367045150.

Date/timePositionNaut miles runAvg speedWind from/ knotsBaromVisibWave heightAir tempDewpointWater temp
2017-Oct-19 01:32N 47°20' W 122°35'1 0.8
2017-Oct-19 00:22N 47°20' W 122°34'3 7.4
2017-Oct-19 00:00N 47°22' W 122°33'2 1.4
2017-Oct-18 22:54N 47°24' W 122°33'0 0.8
2017-Oct-18 22:30N 47°24' W 122°33'1 1.4
2017-Oct-18 21:52N 47°23' W 122°33'0 0.5
2017-Oct-18 21:27N 47°23' W 122°33'0 0.6
2017-Oct-18 20:57N 47°23' W 122°33'0 0.6
2017-Oct-18 20:30N 47°23' W 122°33'2 4.9
2017-Oct-18 20:00N 47°21' W 122°33'1 1.8
2017-Oct-18 19:29N 47°20' W 122°34'0 0.2
2017-Oct-18 18:57N 47°20' W 122°34'0 0.4
2017-Oct-18 18:27N 47°20' W 122°34'0 0.2
2017-Oct-18 18:00N 47°20' W 122°34'1 1.3
2017-Oct-18 17:29N 47°20' W 122°34'3 4.7
2017-Oct-18 16:53N 47°23' W 122°33'0 0.5
2017-Oct-18 16:22N 47°24' W 122°33'0 0.4
2017-Oct-18 15:54N 47°24' W 122°33'0 0.5
2017-Oct-18 15:30N 47°24' W 122°33'0 0.3
2017-Oct-18 15:00N 47°24' W 122°33'0 0.2
2017-Oct-18 13:24N 47°23' W 122°33'0 0.0
2017-Oct-18 12:51N 47°23' W 122°33'0 0.1
2017-Oct-18 12:12N 47°23' W 122°33'0 0.0
2017-Oct-18 12:00N 47°23' W 122°33'0 0.0
2017-Oct-18 11:27N 47°23' W 122°33'0 0.0
2017-Oct-18 11:00N 47°23' W 122°33'0 0.0
2017-Oct-18 10:30N 47°23' W 122°33'0 0.0
2017-Oct-18 09:45N 47°23' W 122°33'0 0.2
2017-Oct-18 09:30N 47°23' W 122°33'0 0.1
2017-Oct-18 08:54N 47°23' W 122°33'0 0.0
2017-Oct-18 08:30N 47°23' W 122°33'0 0.1
2017-Oct-18 08:00N 47°23' W 122°33'0 0.0
2017-Oct-18 07:30N 47°23' W 122°33'0 0.1
2017-Oct-18 07:00N 47°23' W 122°33'0 0.1
2017-Oct-18 06:27N 47°23' W 122°33'0 0.1
2017-Oct-18 06:00N 47°23' W 122°33'0 0.0
2017-Oct-18 05:21N 47°23' W 122°33'0 0.1
2017-Oct-18 04:57N 47°23' W 122°33'0 0.1
2017-Oct-18 04:30N 47°23' W 122°33'0 0.0
2017-Oct-18 03:54N 47°23' W 122°33'0 0.1
2017-Oct-18 03:24N 47°23' W 122°33'0 0.0
2017-Oct-18 02:36N 47°23' W 122°33'0 0.0
2017-Oct-18 01:42N 47°23' W 122°33'0 0.0
2017-Oct-18 01:12N 47°23' W 122°33'0 0.0
2017-Oct-18 00:54N 47°23' W 122°33'0 0.0
2017-Oct-18 00:27N 47°23' W 122°33'0 0.0
2017-Oct-18 00:01N 47°23' W 122°33'0 0.0
2017-Oct-17 23:27N 47°23' W 122°33'0 0.0
2017-Oct-17 22:58N 47°23' W 122°33'0 0.0
2017-Oct-17 22:28N 47°23' W 122°33'0 0.0
2017-Oct-17 22:01N 47°23' W 122°33'0 0.0
2017-Oct-17 21:24N 47°23' W 122°33'0 0.0
2017-Oct-17 20:54N 47°23' W 122°33'0 0.1
2017-Oct-17 20:27N 47°23' W 122°33'0 0.0
2017-Oct-17 20:00N 47°23' W 122°33'0 0.0
2017-Oct-17 19:22N 47°23' W 122°33'0 0.0
2017-Oct-17 18:04N 47°23' W 122°33'0 0.0
2017-Oct-17 17:46N 47°23' W 122°33'0 0.0
2017-Oct-17 17:31N 47°23' W 122°33'0 0.0
2017-Oct-17 16:55N 47°23' W 122°33'0 0.0
2017-Oct-17 16:28N 47°23' W 122°33'0 0.0
2017-Oct-17 15:58N 47°23' W 122°33'0 0.0
2017-Oct-17 15:19N 47°23' W 122°33'0 0.0
2017-Oct-17 14:58N 47°23' W 122°33'0 0.0
2017-Oct-17 13:49N 47°23' W 122°33'0 0.0
2017-Oct-17 13:28N 47°23' W 122°33'0 0.0
2017-Oct-17 12:52N 47°23' W 122°33'0 0.0
2017-Oct-17 12:25N 47°23' W 122°33'0 0.0
2017-Oct-17 11:55N 47°23' W 122°33'0 0.0
2017-Oct-17 11:25N 47°23' W 122°33'0 0.0
2017-Oct-17 10:55N 47°23' W 122°33'0 0.0
2017-Oct-17 10:28N 47°23' W 122°33'0 0.1
2017-Oct-17 09:58N 47°23' W 122°33'0 0.1
2017-Oct-17 09:28N 47°23' W 122°33'0 0.0
2017-Oct-17 08:55N 47°23' W 122°33'0 0.1
2017-Oct-17 08:25N 47°23' W 122°33'0 0.0
2017-Oct-17 07:58N 47°23' W 122°33'0 0.0
2017-Oct-17 07:28N 47°23' W 122°33'0 0.0
2017-Oct-17 06:58N 47°23' W 122°33'0 0.0
2017-Oct-17 06:28N 47°23' W 122°33'0 0.0
2017-Oct-17 05:52N 47°23' W 122°33'0 0.0
2017-Oct-17 05:28N 47°23' W 122°33'0 0.0
2017-Oct-17 04:58N 47°23' W 122°33'0 0.1
2017-Oct-17 04:22N 47°23' W 122°33'0 0.1
2017-Oct-17 03:55N 47°23' W 122°33'0 0.1
2017-Oct-17 03:13N 47°23' W 122°33'0 0.0
2017-Oct-17 02:49N 47°23' W 122°33'0 0.0
2017-Oct-17 01:37N 47°23' W 122°33'0 0.0
2017-Oct-17 01:28N 47°23' W 122°33'0 0.0
2017-Oct-17 00:58N 47°23' W 122°33'0 0.0
2017-Oct-17 00:07N 47°23' W 122°33'0 0.0
2017-Oct-16 23:49N 47°23' W 122°33'0 0.0
2017-Oct-16 23:28N 47°23' W 122°33'0 0.0
2017-Oct-16 22:57N 47°23' W 122°33'2 5.0
2017-Oct-16 22:30N 47°21' W 122°33'2 0.3
2017-Oct-16 14:50N 47°20' W 122°35'0 0.0
2017-Oct-15 17:20N 47°20' W 122°35'0 0.0
2017-Oct-15 16:02N 47°20' W 122°35'0 0.0
2017-Oct-15 15:32N 47°20' W 122°35'0 0.0
2017-Oct-15 15:20N 47°20' W 122°35'0 0.0
2017-Oct-15 13:35N 47°20' W 122°35'0 0.1
2017-Oct-15 13:29N 47°20' W 122°35'0 0.0
2017-Oct-15 08:14N 47°20' W 122°35'0 0.0
2017-Oct-15 05:53N 47°20' W 122°35'0 0.0
2017-Oct-15 02:32N 47°20' W 122°35'0 0.0
2017-Oct-15 01:14N 47°20' W 122°35'0 0.0
2017-Oct-14 15:47N 47°20' W 122°35'0 0.0
2017-Oct-14 15:26N 47°20' W 122°35'0 0.0
2017-Oct-14 14:59N 47°20' W 122°35'0 0.0
2017-Oct-14 08:32N 47°20' W 122°35'0 0.0
2017-Oct-14 08:23N 47°20' W 122°35'0 0.0
2017-Oct-13 22:08N 47°20' W 122°35'0 0.0
2017-Oct-13 15:11N 47°20' W 122°35'0 0.0
2017-Oct-12 04:40N 47°20' W 122°35'0 0.0
2017-Oct-12 04:19N 47°20' W 122°35'0 0.0
2017-Oct-10 13:49N 47°20' W 122°35'0 0.0
2017-Oct-10 13:13N 47°20' W 122°35'0 0.0
2017-Oct-10 12:49N 47°20' W 122°35'0 0.0
2017-Oct-10 12:25N 47°20' W 122°35'0 0.0
2017-Oct-10 11:55N 47°20' W 122°35'0 0.0
2017-Oct-10 11:19N 47°20' W 122°35'0 0.0
2017-Oct-10 10:37N 47°20' W 122°35'0 0.0
2017-Oct-10 10:25N 47°20' W 122°35'0 0.0
2017-Oct-10 09:58N 47°20' W 122°35'0 0.0
2017-Oct-10 09:22N 47°20' W 122°35'0 0.0
2017-Oct-10 08:10N 47°20' W 122°35'0 0.0
2017-Oct-10 07:52N 47°20' W 122°35'0 0.0
2017-Oct-10 06:43N 47°20' W 122°35'0 0.0
2017-Oct-10 06:28N 47°20' W 122°35'0 0.0
2017-Oct-10 04:55N 47°20' W 122°35'0 0.0
2017-Oct-10 00:54N 47°20' W 122°35'2 4.1
2017-Oct-10 00:30N 47°21' W 122°33'4 8.7
2017-Oct-10 00:00N 47°25' W 122°32'5 9.0
2017-Oct-09 23:30N 47°29' W 122°30'5 9.0
2017-Oct-09 23:00N 47°34' W 122°28'5 9.1
2017-Oct-09 22:30N 47°39' W 122°29'4 8.8
2017-Oct-09 21:59N 47°43' W 122°28'4 9.0
2017-Oct-09 21:30N 47°47' W 122°28'4 9.1
2017-Oct-09 21:00N 47°52' W 122°30'  

Dump ship's entire track history